sensor_id;sensor_type;location;lat;lon;timestamp;P1;durP1;ratioP1;P2;durP2;ratioP2
14342;SDS011;7255;53.596;9.960;2022-07-04T00:01:15;4.85;;;3.35;;
14342;SDS011;7255;53.596;9.960;2022-07-04T00:03:42;7.45;;;4.22;;
14342;SDS011;7255;53.596;9.960;2022-07-04T00:06:09;6.40;;;3.55;;
14342;SDS011;7255;53.596;9.960;2022-07-04T00:08:35;6.35;;;3.75;;
14342;SDS011;7255;53.596;9.960;2022-07-04T00:11:01;7.17;;;3.83;;
14342;SDS011;7255;53.596;9.960;2022-07-04T00:13:28;5.45;;;3.45;;
14342;SDS011;7255;53.596;9.960;2022-07-04T00:15:54;4.32;;;3.78;;
14342;SDS011;7255;53.596;9.960;2022-07-04T00:18:20;7.70;;;3.87;;
14342;SDS011;7255;53.596;9.960;2022-07-04T00:20:48;8.15;;;4.30;;
14342;SDS011;7255;53.596;9.960;2022-07-04T00:23:14;5.87;;;4.70;;
14342;SDS011;7255;53.596;9.960;2022-07-04T00:25:41;6.75;;;4.22;;
14342;SDS011;7255;53.596;9.960;2022-07-04T00:28:07;6.10;;;4.45;;
14342;SDS011;7255;53.596;9.960;2022-07-04T00:30:34;6.72;;;4.37;;
14342;SDS011;7255;53.596;9.960;2022-07-04T00:33:00;6.67;;;5.03;;
14342;SDS011;7255;53.596;9.960;2022-07-04T00:35:26;6.87;;;4.65;;
14342;SDS011;7255;53.596;9.960;2022-07-04T00:37:54;6.00;;;4.90;;
14342;SDS011;7255;53.596;9.960;2022-07-04T00:40:20;8.25;;;5.35;;
14342;SDS011;7255;53.596;9.960;2022-07-04T00:42:46;7.22;;;5.50;;
14342;SDS011;7255;53.596;9.960;2022-07-04T00:45:13;7.15;;;5.62;;
14342;SDS011;7255;53.596;9.960;2022-07-04T00:47:39;9.00;;;6.67;;
14342;SDS011;7255;53.596;9.960;2022-07-04T00:50:06;11.02;;;7.47;;
14342;SDS011;7255;53.596;9.960;2022-07-04T00:52:32;9.05;;;7.20;;
14342;SDS011;7255;53.596;9.960;2022-07-04T00:55:00;10.50;;;8.20;;
14342;SDS011;7255;53.596;9.960;2022-07-04T00:57:27;9.00;;;8.07;;
14342;SDS011;7255;53.596;9.960;2022-07-04T00:59:53;10.63;;;7.50;;
14342;SDS011;7255;53.596;9.960;2022-07-04T01:02:19;10.70;;;7.67;;
14342;SDS011;7255;53.596;9.960;2022-07-04T01:04:46;9.05;;;8.02;;
14342;SDS011;7255;53.596;9.960;2022-07-04T01:07:12;12.35;;;9.57;;
14342;SDS011;7255;53.596;9.960;2022-07-04T01:09:39;11.38;;;9.18;;
14342;SDS011;7255;53.596;9.960;2022-07-04T01:12:07;8.23;;;7.50;;
14342;SDS011;7255;53.596;9.960;2022-07-04T01:14:36;9.13;;;8.15;;
14342;SDS011;7255;53.596;9.960;2022-07-04T01:17:03;10.57;;;8.50;;
14342;SDS011;7255;53.596;9.960;2022-07-04T01:19:30;9.32;;;8.43;;
14342;SDS011;7255;53.596;9.960;2022-07-04T01:21:57;10.00;;;8.43;;
14342;SDS011;7255;53.596;9.960;2022-07-04T01:24:24;9.88;;;7.85;;
14342;SDS011;7255;53.596;9.960;2022-07-04T01:26:50;11.50;;;9.93;;
14342;SDS011;7255;53.596;9.960;2022-07-04T01:29:16;12.13;;;10.67;;
14342;SDS011;7255;53.596;9.960;2022-07-04T01:31:44;13.02;;;11.63;;
14342;SDS011;7255;53.596;9.960;2022-07-04T01:34:11;13.88;;;12.05;;
14342;SDS011;7255;53.596;9.960;2022-07-04T01:36:37;13.30;;;12.00;;
14342;SDS011;7255;53.596;9.960;2022-07-04T01:39:05;14.13;;;12.75;;
14342;SDS011;7255;53.596;9.960;2022-07-04T01:41:32;14.15;;;12.63;;
14342;SDS011;7255;53.596;9.960;2022-07-04T01:43:59;14.10;;;12.70;;
14342;SDS011;7255;53.596;9.960;2022-07-04T01:46:26;14.87;;;13.37;;
14342;SDS011;7255;53.596;9.960;2022-07-04T01:48:52;15.70;;;13.95;;
14342;SDS011;7255;53.596;9.960;2022-07-04T01:51:18;15.85;;;14.35;;
14342;SDS011;7255;53.596;9.960;2022-07-04T01:53:45;16.80;;;15.00;;
14342;SDS011;7255;53.596;9.960;2022-07-04T01:56:12;17.73;;;15.90;;
14342;SDS011;7255;53.596;9.960;2022-07-04T01:58:38;16.70;;;15.00;;
14342;SDS011;7255;53.596;9.960;2022-07-04T02:01:05;16.87;;;15.18;;
14342;SDS011;7255;53.596;9.960;2022-07-04T02:03:49;16.67;;;14.87;;
14342;SDS011;7255;53.596;9.960;2022-07-04T02:06:15;18.00;;;16.23;;
14342;SDS011;7255;53.596;9.960;2022-07-04T02:08:41;18.92;;;16.92;;
14342;SDS011;7255;53.596;9.960;2022-07-04T02:11:27;18.55;;;16.85;;
14342;SDS011;7255;53.596;9.960;2022-07-04T02:13:53;21.23;;;19.02;;
14342;SDS011;7255;53.596;9.960;2022-07-04T02:16:18;21.00;;;18.97;;
14342;SDS011;7255;53.596;9.960;2022-07-04T02:18:45;20.48;;;18.48;;
14342;SDS011;7255;53.596;9.960;2022-07-04T02:21:11;18.37;;;16.63;;
14342;SDS011;7255;53.596;9.960;2022-07-04T02:23:37;18.98;;;17.15;;
14342;SDS011;7255;53.596;9.960;2022-07-04T02:26:04;20.92;;;18.73;;
14342;SDS011;7255;53.596;9.960;2022-07-04T02:28:31;20.62;;;18.62;;
14342;SDS011;7255;53.596;9.960;2022-07-04T02:30:58;19.95;;;17.85;;
14342;SDS011;7255;53.596;9.960;2022-07-04T02:33:24;20.15;;;18.05;;
14342;SDS011;7255;53.596;9.960;2022-07-04T02:35:50;19.57;;;17.67;;
14342;SDS011;7255;53.596;9.960;2022-07-04T02:38:17;19.25;;;17.35;;
14342;SDS011;7255;53.596;9.960;2022-07-04T02:40:43;19.37;;;17.58;;
14342;SDS011;7255;53.596;9.960;2022-07-04T02:43:09;18.25;;;16.45;;
14342;SDS011;7255;53.596;9.960;2022-07-04T02:45:37;16.30;;;14.75;;
14342;SDS011;7255;53.596;9.960;2022-07-04T02:48:03;17.85;;;16.15;;
14342;SDS011;7255;53.596;9.960;2022-07-04T02:50:30;18.23;;;15.63;;
14342;SDS011;7255;53.596;9.960;2022-07-04T02:52:56;17.55;;;15.82;;
14342;SDS011;7255;53.596;9.960;2022-07-04T02:55:22;16.95;;;15.25;;
14342;SDS011;7255;53.596;9.960;2022-07-04T02:57:49;16.55;;;14.95;;
14342;SDS011;7255;53.596;9.960;2022-07-04T03:00:15;15.23;;;13.82;;
14342;SDS011;7255;53.596;9.960;2022-07-04T03:02:42;15.07;;;13.62;;
14342;SDS011;7255;53.596;9.960;2022-07-04T03:05:09;15.25;;;13.30;;
14342;SDS011;7255;53.596;9.960;2022-07-04T03:07:35;14.85;;;13.55;;
14342;SDS011;7255;53.596;9.960;2022-07-04T03:10:01;15.50;;;13.98;;
14342;SDS011;7255;53.596;9.960;2022-07-04T03:12:28;15.02;;;13.55;;
14342;SDS011;7255;53.596;9.960;2022-07-04T03:14:54;14.60;;;13.15;;
14342;SDS011;7255;53.596;9.960;2022-07-04T03:17:24;14.77;;;13.25;;
14342;SDS011;7255;53.596;9.960;2022-07-04T03:19:51;13.50;;;12.15;;
14342;SDS011;7255;53.596;9.960;2022-07-04T03:22:18;15.50;;;14.05;;
14342;SDS011;7255;53.596;9.960;2022-07-04T03:24:44;13.50;;;12.20;;
14342;SDS011;7255;53.596;9.960;2022-07-04T03:27:10;14.00;;;12.50;;
14342;SDS011;7255;53.596;9.960;2022-07-04T03:29:36;16.30;;;14.70;;
14342;SDS011;7255;53.596;9.960;2022-07-04T03:32:03;16.45;;;14.80;;
14342;SDS011;7255;53.596;9.960;2022-07-04T03:34:30;16.60;;;15.00;;
14342;SDS011;7255;53.596;9.960;2022-07-04T03:36:58;17.45;;;15.55;;
14342;SDS011;7255;53.596;9.960;2022-07-04T03:39:24;18.50;;;16.60;;
14342;SDS011;7255;53.596;9.960;2022-07-04T03:41:50;17.15;;;15.35;;
14342;SDS011;7255;53.596;9.960;2022-07-04T03:44:17;18.45;;;16.40;;
14342;SDS011;7255;53.596;9.960;2022-07-04T03:46:43;18.62;;;16.83;;
14342;SDS011;7255;53.596;9.960;2022-07-04T03:49:09;21.25;;;18.25;;
14342;SDS011;7255;53.596;9.960;2022-07-04T03:51:36;19.62;;;17.73;;
14342;SDS011;7255;53.596;9.960;2022-07-04T03:54:03;18.05;;;16.23;;
14342;SDS011;7255;53.596;9.960;2022-07-04T03:56:30;18.83;;;17.02;;
14342;SDS011;7255;53.596;9.960;2022-07-04T03:58:56;18.65;;;16.90;;
14342;SDS011;7255;53.596;9.960;2022-07-04T04:01:22;17.45;;;15.75;;
14342;SDS011;7255;53.596;9.960;2022-07-04T04:03:49;19.12;;;17.23;;
14342;SDS011;7255;53.596;9.960;2022-07-04T04:06:32;18.60;;;16.73;;
14342;SDS011;7255;53.596;9.960;2022-07-04T04:08:59;18.33;;;16.53;;
14342;SDS011;7255;53.596;9.960;2022-07-04T04:11:27;17.20;;;15.60;;
14342;SDS011;7255;53.596;9.960;2022-07-04T04:13:53;17.20;;;15.50;;
14342;SDS011;7255;53.596;9.960;2022-07-04T04:16:19;16.58;;;14.95;;
14342;SDS011;7255;53.596;9.960;2022-07-04T04:18:46;16.58;;;14.55;;
14342;SDS011;7255;53.596;9.960;2022-07-04T04:21:12;15.60;;;14.05;;
14342;SDS011;7255;53.596;9.960;2022-07-04T04:23:38;14.70;;;13.30;;
14342;SDS011;7255;53.596;9.960;2022-07-04T04:26:05;15.48;;;13.77;;
14342;SDS011;7255;53.596;9.960;2022-07-04T04:28:32;15.43;;;13.70;;
14342;SDS011;7255;53.596;9.960;2022-07-04T04:30:59;14.43;;;12.70;;
14342;SDS011;7255;53.596;9.960;2022-07-04T04:33:25;13.68;;;12.40;;
14342;SDS011;7255;53.596;9.960;2022-07-04T04:35:51;10.98;;;9.82;;
14342;SDS011;7255;53.596;9.960;2022-07-04T04:38:18;11.70;;;10.27;;
14342;SDS011;7255;53.596;9.960;2022-07-04T04:40:44;11.23;;;10.13;;
14342;SDS011;7255;53.596;9.960;2022-07-04T04:43:10;10.38;;;9.13;;
14342;SDS011;7255;53.596;9.960;2022-07-04T04:45:38;10.10;;;9.10;;
14342;SDS011;7255;53.596;9.960;2022-07-04T04:48:05;8.10;;;7.30;;
14342;SDS011;7255;53.596;9.960;2022-07-04T04:50:31;9.07;;;7.18;;
14342;SDS011;7255;53.596;9.960;2022-07-04T04:52:57;9.15;;;7.37;;
14342;SDS011;7255;53.596;9.960;2022-07-04T04:55:24;9.65;;;6.50;;
14342;SDS011;7255;53.596;9.960;2022-07-04T04:57:51;8.80;;;7.18;;
14342;SDS011;7255;53.596;9.960;2022-07-04T05:00:17;7.37;;;6.65;;
14342;SDS011;7255;53.596;9.960;2022-07-04T05:02:45;8.40;;;6.80;;
14342;SDS011;7255;53.596;9.960;2022-07-04T05:05:11;8.93;;;6.80;;
14342;SDS011;7255;53.596;9.960;2022-07-04T05:07:37;8.33;;;7.43;;
14342;SDS011;7255;53.596;9.960;2022-07-04T05:10:04;8.55;;;6.95;;
14342;SDS011;7255;53.596;9.960;2022-07-04T05:12:31;8.30;;;6.50;;
14342;SDS011;7255;53.596;9.960;2022-07-04T05:14:58;6.50;;;5.90;;
14342;SDS011;7255;53.596;9.960;2022-07-04T05:17:24;7.40;;;5.90;;
14342;SDS011;7255;53.596;9.960;2022-07-04T05:19:52;6.30;;;5.70;;
14342;SDS011;7255;53.596;9.960;2022-07-04T05:22:18;7.75;;;5.12;;
14342;SDS011;7255;53.596;9.960;2022-07-04T05:24:44;6.82;;;4.57;;
14342;SDS011;7255;53.596;9.960;2022-07-04T05:27:11;5.05;;;4.22;;
14342;SDS011;7255;53.596;9.960;2022-07-04T05:29:37;6.82;;;4.07;;
14342;SDS011;7255;53.596;9.960;2022-07-04T05:32:03;7.40;;;3.30;;
14342;SDS011;7255;53.596;9.960;2022-07-04T05:34:30;6.35;;;3.50;;
14342;SDS011;7255;53.596;9.960;2022-07-04T05:36:58;5.75;;;3.62;;
14342;SDS011;7255;53.596;9.960;2022-07-04T05:39:24;3.53;;;2.67;;
14342;SDS011;7255;53.596;9.960;2022-07-04T05:41:50;5.53;;;3.10;;
14342;SDS011;7255;53.596;9.960;2022-07-04T05:44:17;4.87;;;3.07;;
14342;SDS011;7255;53.596;9.960;2022-07-04T05:46:43;3.63;;;2.83;;
14342;SDS011;7255;53.596;9.960;2022-07-04T05:49:09;6.43;;;2.97;;
14342;SDS011;7255;53.596;9.960;2022-07-04T05:51:35;6.07;;;2.72;;
14342;SDS011;7255;53.596;9.960;2022-07-04T05:54:03;4.10;;;2.60;;
14342;SDS011;7255;53.596;9.960;2022-07-04T05:56:29;4.10;;;2.30;;
14342;SDS011;7255;53.596;9.960;2022-07-04T05:58:56;4.82;;;2.45;;
14342;SDS011;7255;53.596;9.960;2022-07-04T06:01:22;3.45;;;1.87;;
14342;SDS011;7255;53.596;9.960;2022-07-04T06:03:49;6.12;;;2.53;;
14342;SDS011;7255;53.596;9.960;2022-07-04T06:06:15;3.70;;;1.98;;
14342;SDS011;7255;53.596;9.960;2022-07-04T06:08:41;5.30;;;1.92;;
14342;SDS011;7255;53.596;9.960;2022-07-04T06:11:09;3.75;;;1.80;;
14342;SDS011;7255;53.596;9.960;2022-07-04T06:13:36;4.25;;;1.92;;
14342;SDS011;7255;53.596;9.960;2022-07-04T06:16:02;4.00;;;1.87;;
14342;SDS011;7255;53.596;9.960;2022-07-04T06:18:28;3.40;;;2.12;;
14342;SDS011;7255;53.596;9.960;2022-07-04T06:20:55;3.62;;;1.90;;
14342;SDS011;7255;53.596;9.960;2022-07-04T06:23:21;3.28;;;1.70;;
14342;SDS011;7255;53.596;9.960;2022-07-04T06:25:48;4.05;;;1.90;;
14342;SDS011;7255;53.596;9.960;2022-07-04T06:28:16;3.57;;;2.20;;
14342;SDS011;7255;53.596;9.960;2022-07-04T06:30:42;4.10;;;2.12;;
14342;SDS011;7255;53.596;9.960;2022-07-04T06:33:09;3.65;;;1.95;;
14342;SDS011;7255;53.596;9.960;2022-07-04T06:35:36;4.10;;;2.10;;
14342;SDS011;7255;53.596;9.960;2022-07-04T06:38:11;4.55;;;2.10;;
14342;SDS011;7255;53.596;9.960;2022-07-04T06:40:39;3.70;;;1.92;;
14342;SDS011;7255;53.596;9.960;2022-07-04T06:43:06;3.28;;;2.15;;
14342;SDS011;7255;53.596;9.960;2022-07-04T06:45:34;3.92;;;2.12;;
14342;SDS011;7255;53.596;9.960;2022-07-04T06:48:01;4.18;;;1.85;;
14342;SDS011;7255;53.596;9.960;2022-07-04T06:50:28;4.80;;;2.35;;
14342;SDS011;7255;53.596;9.960;2022-07-04T06:52:57;5.15;;;1.87;;
14342;SDS011;7255;53.596;9.960;2022-07-04T06:55:24;4.35;;;2.22;;
14342;SDS011;7255;53.596;9.960;2022-07-04T06:57:50;6.57;;;2.08;;
14342;SDS011;7255;53.596;9.960;2022-07-04T07:00:17;3.17;;;1.98;;
14342;SDS011;7255;53.596;9.960;2022-07-04T07:02:44;5.33;;;2.00;;
14342;SDS011;7255;53.596;9.960;2022-07-04T07:05:11;4.87;;;1.85;;
14342;SDS011;7255;53.596;9.960;2022-07-04T07:07:37;3.90;;;2.00;;
14342;SDS011;7255;53.596;9.960;2022-07-04T07:10:04;2.70;;;1.70;;
14342;SDS011;7255;53.596;9.960;2022-07-04T07:12:31;3.55;;;1.73;;
14342;SDS011;7255;53.596;9.960;2022-07-04T07:14:58;5.32;;;2.00;;
14342;SDS011;7255;53.596;9.960;2022-07-04T07:17:24;4.68;;;1.90;;
14342;SDS011;7255;53.596;9.960;2022-07-04T07:19:52;4.30;;;1.70;;
14342;SDS011;7255;53.596;9.960;2022-07-04T07:22:19;3.37;;;1.65;;
14342;SDS011;7255;53.596;9.960;2022-07-04T07:24:45;4.40;;;1.90;;
14342;SDS011;7255;53.596;9.960;2022-07-04T07:27:12;4.40;;;1.60;;
14342;SDS011;7255;53.596;9.960;2022-07-04T07:29:38;2.40;;;1.42;;
14342;SDS011;7255;53.596;9.960;2022-07-04T07:32:05;3.17;;;1.65;;
14342;SDS011;7255;53.596;9.960;2022-07-04T07:34:33;4.27;;;1.43;;
14342;SDS011;7255;53.596;9.960;2022-07-04T07:37:01;3.30;;;1.60;;
14342;SDS011;7255;53.596;9.960;2022-07-04T07:39:28;2.95;;;1.67;;
14342;SDS011;7255;53.596;9.960;2022-07-04T07:41:54;4.28;;;1.70;;
14342;SDS011;7255;53.596;9.960;2022-07-04T07:44:20;2.60;;;1.40;;
14342;SDS011;7255;53.596;9.960;2022-07-04T07:46:47;3.12;;;1.17;;
14342;SDS011;7255;53.596;9.960;2022-07-04T07:49:13;3.63;;;1.50;;
14342;SDS011;7255;53.596;9.960;2022-07-04T07:51:39;1.90;;;1.30;;
14342;SDS011;7255;53.596;9.960;2022-07-04T07:54:07;3.20;;;1.40;;
14342;SDS011;7255;53.596;9.960;2022-07-04T07:56:33;3.03;;;1.50;;
14342;SDS011;7255;53.596;9.960;2022-07-04T07:59:00;2.60;;;1.30;;
14342;SDS011;7255;53.596;9.960;2022-07-04T08:01:26;3.47;;;1.30;;
14342;SDS011;7255;53.596;9.960;2022-07-04T08:03:53;4.00;;;1.40;;
14342;SDS011;7255;53.596;9.960;2022-07-04T08:06:51;2.87;;;1.40;;
14342;SDS011;7255;53.596;9.960;2022-07-04T08:09:19;2.85;;;1.40;;
14342;SDS011;7255;53.596;9.960;2022-07-04T08:11:45;3.03;;;1.40;;
14342;SDS011;7255;53.596;9.960;2022-07-04T08:14:12;3.40;;;1.15;;
14342;SDS011;7255;53.596;9.960;2022-07-04T08:16:39;3.78;;;1.55;;
14342;SDS011;7255;53.596;9.960;2022-07-04T08:19:05;2.70;;;1.50;;
14342;SDS011;7255;53.596;9.960;2022-07-04T08:21:31;3.97;;;1.50;;
14342;SDS011;7255;53.596;9.960;2022-07-04T08:23:58;2.40;;;1.30;;
14342;SDS011;7255;53.596;9.960;2022-07-04T08:26:25;3.03;;;1.25;;
14342;SDS011;7255;53.596;9.960;2022-07-04T08:28:52;3.53;;;1.20;;
14342;SDS011;7255;53.596;9.960;2022-07-04T08:31:22;3.80;;;1.30;;
14342;SDS011;7255;53.596;9.960;2022-07-04T08:33:48;2.93;;;1.10;;
14342;SDS011;7255;53.596;9.960;2022-07-04T08:36:15;1.97;;;1.20;;
14342;SDS011;7255;53.596;9.960;2022-07-04T08:38:41;1.87;;;1.05;;
14342;SDS011;7255;53.596;9.960;2022-07-04T08:41:07;3.90;;;1.40;;
14342;SDS011;7255;53.596;9.960;2022-07-04T08:43:35;2.28;;;1.20;;
14342;SDS011;7255;53.596;9.960;2022-07-04T08:46:03;4.07;;;1.15;;
14342;SDS011;7255;53.596;9.960;2022-07-04T08:48:30;2.42;;;1.10;;
14342;SDS011;7255;53.596;9.960;2022-07-04T08:50:59;2.05;;;1.17;;
14342;SDS011;7255;53.596;9.960;2022-07-04T08:53:30;1.75;;;1.05;;
14342;SDS011;7255;53.596;9.960;2022-07-04T08:55:58;3.00;;;1.27;;
14342;SDS011;7255;53.596;9.960;2022-07-04T08:58:45;2.45;;;1.20;;
14342;SDS011;7255;53.596;9.960;2022-07-04T09:01:13;2.83;;;1.10;;
14342;SDS011;7255;53.596;9.960;2022-07-04T09:03:41;2.37;;;1.12;;
14342;SDS011;7255;53.596;9.960;2022-07-04T09:06:08;2.35;;;1.10;;
14342;SDS011;7255;53.596;9.960;2022-07-04T09:08:35;2.53;;;1.10;;
14342;SDS011;7255;53.596;9.960;2022-07-04T09:11:02;2.00;;;1.10;;
14342;SDS011;7255;53.596;9.960;2022-07-04T09:13:29;1.80;;;1.02;;
14342;SDS011;7255;53.596;9.960;2022-07-04T09:15:57;2.60;;;1.12;;
14342;SDS011;7255;53.596;9.960;2022-07-04T09:18:24;2.53;;;1.10;;
14342;SDS011;7255;53.596;9.960;2022-07-04T09:20:52;1.55;;;1.10;;
14342;SDS011;7255;53.596;9.960;2022-07-04T09:23:20;2.70;;;1.30;;
14342;SDS011;7255;53.596;9.960;2022-07-04T09:25:48;2.90;;;1.10;;
14342;SDS011;7255;53.596;9.960;2022-07-04T09:28:27;1.53;;;0.97;;
14342;SDS011;7255;53.596;9.960;2022-07-04T09:30:54;2.15;;;1.10;;
14342;SDS011;7255;53.596;9.960;2022-07-04T09:33:22;3.35;;;1.17;;
14342;SDS011;7255;53.596;9.960;2022-07-04T09:35:49;2.40;;;1.20;;
14342;SDS011;7255;53.596;9.960;2022-07-04T09:38:21;3.62;;;1.17;;
14342;SDS011;7255;53.596;9.960;2022-07-04T09:40:51;2.00;;;1.10;;
14342;SDS011;7255;53.596;9.960;2022-07-04T09:43:36;2.12;;;1.00;;
14342;SDS011;7255;53.596;9.960;2022-07-04T09:46:02;1.60;;;0.93;;
14342;SDS011;7255;53.596;9.960;2022-07-04T09:48:33;3.03;;;1.17;;
14342;SDS011;7255;53.596;9.960;2022-07-04T09:51:13;2.58;;;1.15;;
14342;SDS011;7255;53.596;9.960;2022-07-04T09:53:40;2.45;;;1.12;;
14342;SDS011;7255;53.596;9.960;2022-07-04T09:56:08;1.37;;;0.93;;
14342;SDS011;7255;53.596;9.960;2022-07-04T09:58:34;2.20;;;1.05;;
14342;SDS011;7255;53.596;9.960;2022-07-04T10:01:01;3.28;;;1.12;;
14342;SDS011;7255;53.596;9.960;2022-07-04T10:03:28;2.78;;;1.00;;
14342;SDS011;7255;53.596;9.960;2022-07-04T10:06:03;2.67;;;1.12;;
14342;SDS011;7255;53.596;9.960;2022-07-04T10:08:31;2.30;;;1.00;;
14342;SDS011;7255;53.596;9.960;2022-07-04T10:10:57;2.07;;;0.87;;
14342;SDS011;7255;53.596;9.960;2022-07-04T10:13:24;2.10;;;0.90;;
14342;SDS011;7255;53.596;9.960;2022-07-04T10:15:51;2.10;;;1.00;;
14342;SDS011;7255;53.596;9.960;2022-07-04T10:18:18;1.70;;;1.00;;
14342;SDS011;7255;53.596;9.960;2022-07-04T10:20:46;1.27;;;0.80;;
14342;SDS011;7255;53.596;9.960;2022-07-04T10:23:15;1.83;;;1.23;;
14342;SDS011;7255;53.596;9.960;2022-07-04T10:25:42;2.10;;;1.00;;
14342;SDS011;7255;53.596;9.960;2022-07-04T10:28:11;2.10;;;0.90;;
14342;SDS011;7255;53.596;9.960;2022-07-04T10:30:37;2.42;;;1.02;;
14342;SDS011;7255;53.596;9.960;2022-07-04T10:33:06;2.50;;;0.98;;
14342;SDS011;7255;53.596;9.960;2022-07-04T10:35:48;1.67;;;0.80;;
14342;SDS011;7255;53.596;9.960;2022-07-04T10:38:20;2.03;;;0.90;;
14342;SDS011;7255;53.596;9.960;2022-07-04T10:40:48;1.50;;;0.90;;
14342;SDS011;7255;53.596;9.960;2022-07-04T10:48:51;1.77;;;1.00;;
14342;SDS011;7255;53.596;9.960;2022-07-04T10:51:31;2.03;;;1.02;;
14342;SDS011;7255;53.596;9.960;2022-07-04T10:54:01;2.00;;;0.90;;
14342;SDS011;7255;53.596;9.960;2022-07-04T10:56:36;2.10;;;1.00;;
14342;SDS011;7255;53.596;9.960;2022-07-04T10:59:07;1.93;;;1.00;;
14342;SDS011;7255;53.596;9.960;2022-07-04T11:01:34;1.60;;;0.90;;
14342;SDS011;7255;53.596;9.960;2022-07-04T11:04:01;1.92;;;0.90;;
14342;SDS011;7255;53.596;9.960;2022-07-04T11:09:19;1.48;;;0.90;;
14342;SDS011;7255;53.596;9.960;2022-07-04T11:11:47;2.17;;;1.20;;
14342;SDS011;7255;53.596;9.960;2022-07-04T11:14:30;1.52;;;0.88;;
14342;SDS011;7255;53.596;9.960;2022-07-04T11:16:58;2.00;;;0.90;;
14342;SDS011;7255;53.596;9.960;2022-07-04T11:19:25;3.03;;;1.02;;
14342;SDS011;7255;53.596;9.960;2022-07-04T11:21:52;1.80;;;1.02;;
14342;SDS011;7255;53.596;9.960;2022-07-04T11:24:21;2.00;;;1.10;;
14342;SDS011;7255;53.596;9.960;2022-07-04T11:26:47;3.47;;;1.30;;
14342;SDS011;7255;53.596;9.960;2022-07-04T11:29:14;1.90;;;1.08;;
14342;SDS011;7255;53.596;9.960;2022-07-04T11:31:41;2.55;;;1.15;;
14342;SDS011;7255;53.596;9.960;2022-07-04T11:34:09;2.95;;;1.20;;
14342;SDS011;7255;53.596;9.960;2022-07-04T11:36:35;1.65;;;1.10;;
14342;SDS011;7255;53.596;9.960;2022-07-04T11:39:04;2.30;;;1.00;;
14342;SDS011;7255;53.596;9.960;2022-07-04T11:41:34;2.08;;;0.90;;
14342;SDS011;7255;53.596;9.960;2022-07-04T11:44:20;1.67;;;1.08;;
14342;SDS011;7255;53.596;9.960;2022-07-04T11:47:06;1.70;;;1.15;;
14342;SDS011;7255;53.596;9.960;2022-07-04T11:49:34;2.37;;;1.10;;
14342;SDS011;7255;53.596;9.960;2022-07-04T11:52:00;2.40;;;1.10;;
14342;SDS011;7255;53.596;9.960;2022-07-04T11:54:27;2.22;;;1.10;;
14342;SDS011;7255;53.596;9.960;2022-07-04T11:57:08;2.22;;;1.27;;
14342;SDS011;7255;53.596;9.960;2022-07-04T11:59:36;4.20;;;1.30;;
14342;SDS011;7255;53.596;9.960;2022-07-04T12:02:09;2.87;;;1.12;;
14342;SDS011;7255;53.596;9.960;2022-07-04T12:04:36;1.60;;;0.93;;
14342;SDS011;7255;53.596;9.960;2022-07-04T12:07:08;2.55;;;1.12;;
14342;SDS011;7255;53.596;9.960;2022-07-04T12:09:35;1.55;;;0.90;;
14342;SDS011;7255;53.596;9.960;2022-07-04T12:12:02;2.47;;;1.20;;
14342;SDS011;7255;53.596;9.960;2022-07-04T12:14:30;2.65;;;1.10;;
14342;SDS011;7255;53.596;9.960;2022-07-04T12:17:13;1.45;;;1.00;;
14342;SDS011;7255;53.596;9.960;2022-07-04T12:19:54;2.25;;;1.12;;
14342;SDS011;7255;53.596;9.960;2022-07-04T12:22:25;1.48;;;1.10;;
14342;SDS011;7255;53.596;9.960;2022-07-04T12:24:56;3.12;;;1.20;;
14342;SDS011;7255;53.596;9.960;2022-07-04T12:27:23;2.35;;;1.20;;
14342;SDS011;7255;53.596;9.960;2022-07-04T12:29:52;1.52;;;1.00;;
14342;SDS011;7255;53.596;9.960;2022-07-04T12:32:19;3.15;;;1.15;;
14342;SDS011;7255;53.596;9.960;2022-07-04T12:34:47;3.15;;;1.00;;
14342;SDS011;7255;53.596;9.960;2022-07-04T12:37:14;2.10;;;1.15;;
14342;SDS011;7255;53.596;9.960;2022-07-04T12:39:43;2.25;;;1.20;;
14342;SDS011;7255;53.596;9.960;2022-07-04T12:42:12;2.72;;;1.20;;
14342;SDS011;7255;53.596;9.960;2022-07-04T12:44:40;1.87;;;1.00;;
14342;SDS011;7255;53.596;9.960;2022-07-04T12:47:09;3.92;;;1.05;;
14342;SDS011;7255;53.596;9.960;2022-07-04T12:49:36;2.05;;;0.90;;
14342;SDS011;7255;53.596;9.960;2022-07-04T12:52:04;1.87;;;1.12;;
14342;SDS011;7255;53.596;9.960;2022-07-04T12:54:32;2.22;;;0.98;;
14342;SDS011;7255;53.596;9.960;2022-07-04T12:57:05;1.70;;;1.00;;
14342;SDS011;7255;53.596;9.960;2022-07-04T12:59:33;3.28;;;1.20;;
14342;SDS011;7255;53.596;9.960;2022-07-04T13:01:59;2.55;;;1.00;;
14342;SDS011;7255;53.596;9.960;2022-07-04T13:04:27;3.30;;;1.30;;
14342;SDS011;7255;53.596;9.960;2022-07-04T13:06:55;2.37;;;1.10;;
14342;SDS011;7255;53.596;9.960;2022-07-04T13:09:23;2.17;;;1.10;;
14342;SDS011;7255;53.596;9.960;2022-07-04T13:11:49;2.65;;;1.20;;
14342;SDS011;7255;53.596;9.960;2022-07-04T13:14:33;3.40;;;1.10;;
14342;SDS011;7255;53.596;9.960;2022-07-04T13:16:59;2.17;;;1.00;;
14342;SDS011;7255;53.596;9.960;2022-07-04T13:19:27;4.22;;;1.20;;
14342;SDS011;7255;53.596;9.960;2022-07-04T13:21:53;2.60;;;1.25;;
14342;SDS011;7255;53.596;9.960;2022-07-04T13:24:20;4.75;;;1.50;;
14342;SDS011;7255;53.596;9.960;2022-07-04T13:26:47;2.37;;;1.10;;
14342;SDS011;7255;53.596;9.960;2022-07-04T13:29:13;2.90;;;1.20;;
14342;SDS011;7255;53.596;9.960;2022-07-04T13:31:39;2.55;;;1.30;;
14342;SDS011;7255;53.596;9.960;2022-07-04T13:34:06;3.25;;;1.48;;
14342;SDS011;7255;53.596;9.960;2022-07-04T13:36:33;2.37;;;1.27;;
14342;SDS011;7255;53.596;9.960;2022-07-04T13:39:00;4.18;;;1.30;;
14342;SDS011;7255;53.596;9.960;2022-07-04T13:41:26;4.43;;;1.20;;
14342;SDS011;7255;53.596;9.960;2022-07-04T13:43:53;3.00;;;1.40;;
14342;SDS011;7255;53.596;9.960;2022-07-04T13:46:21;4.47;;;1.52;;
14342;SDS011;7255;53.596;9.960;2022-07-04T13:48:47;5.55;;;1.50;;
14342;SDS011;7255;53.596;9.960;2022-07-04T13:51:14;4.32;;;1.37;;
14342;SDS011;7255;53.596;9.960;2022-07-04T13:53:41;4.05;;;1.55;;
14342;SDS011;7255;53.596;9.960;2022-07-04T13:56:08;5.93;;;1.65;;
14342;SDS011;7255;53.596;9.960;2022-07-04T13:58:34;4.35;;;1.40;;
14342;SDS011;7255;53.596;9.960;2022-07-04T14:01:01;4.07;;;1.45;;
14342;SDS011;7255;53.596;9.960;2022-07-04T14:03:27;2.58;;;1.30;;
14342;SDS011;7255;53.596;9.960;2022-07-04T14:05:53;3.80;;;1.35;;
14342;SDS011;7255;53.596;9.960;2022-07-04T14:08:20;3.80;;;1.50;;
14342;SDS011;7255;53.596;9.960;2022-07-04T14:10:52;4.30;;;1.70;;
14342;SDS011;7255;53.596;9.960;2022-07-04T14:13:18;4.35;;;1.50;;
14342;SDS011;7255;53.596;9.960;2022-07-04T14:15:45;4.62;;;1.50;;
14342;SDS011;7255;53.596;9.960;2022-07-04T14:18:11;6.40;;;1.62;;
14342;SDS011;7255;53.596;9.960;2022-07-04T14:20:38;2.90;;;1.40;;
14342;SDS011;7255;53.596;9.960;2022-07-04T14:23:05;4.37;;;1.40;;
14342;SDS011;7255;53.596;9.960;2022-07-04T14:25:31;7.37;;;3.12;;
14342;SDS011;7255;53.596;9.960;2022-07-04T14:27:59;3.60;;;1.77;;
14342;SDS011;7255;53.596;9.960;2022-07-04T14:30:25;2.53;;;1.40;;
14342;SDS011;7255;53.596;9.960;2022-07-04T14:32:52;4.45;;;1.48;;
14342;SDS011;7255;53.596;9.960;2022-07-04T14:35:19;3.00;;;1.20;;
14342;SDS011;7255;53.596;9.960;2022-07-04T14:37:45;4.82;;;1.35;;
14342;SDS011;7255;53.596;9.960;2022-07-04T14:40:13;2.67;;;1.20;;
14342;SDS011;7255;53.596;9.960;2022-07-04T14:42:42;3.28;;;1.42;;
14342;SDS011;7255;53.596;9.960;2022-07-04T14:45:10;2.20;;;1.55;;
14342;SDS011;7255;53.596;9.960;2022-07-04T14:47:36;3.58;;;1.33;;
14342;SDS011;7255;53.596;9.960;2022-07-04T14:50:05;2.22;;;1.10;;
14342;SDS011;7255;53.596;9.960;2022-07-04T14:52:32;3.12;;;1.30;;
14342;SDS011;7255;53.596;9.960;2022-07-04T14:54:59;4.00;;;1.30;;
14342;SDS011;7255;53.596;9.960;2022-07-04T14:57:25;2.87;;;1.30;;
14342;SDS011;7255;53.596;9.960;2022-07-04T14:59:51;3.05;;;1.40;;
14342;SDS011;7255;53.596;9.960;2022-07-04T15:02:19;2.47;;;1.37;;
14342;SDS011;7255;53.596;9.960;2022-07-04T15:04:45;3.05;;;1.10;;
14342;SDS011;7255;53.596;9.960;2022-07-04T15:07:11;2.55;;;1.35;;